Thurso, United Kingdom
Current Conditions -  °F | °C
As of 8:50 PM on Thursday 18 Dec 2014 (Local Time) from EGPC Reporting Station
Clear Clear  
Wind Chill: 24°   Ceiling: Unl
Heat Index: 36°   Visibility: 6mi
Dew Point: 30°   Wind: 22mph
Humidity: 81%   Direction: 260°W
Pressure: 29.23"   Gusts: NA
Location:  58.59°N, 3.53°W
Report Text: EGPC 182050Z AUTO 26019KT 9999 NCD 02/M01 Q0990
Loading
Personal Weather Stations






























Interactive Weather Map New forecast layout! Learn more

10-Day Weather Forecast

Advertisements
Track Severe Weather on mobile